createdAt,value
2022-09-05T00:02:12.246Z,25.48
2022-09-05T00:04:38.643Z,25.49
2022-09-05T00:07:05.026Z,25.48
2022-09-05T00:09:31.404Z,25.47
2022-09-05T00:11:57.798Z,25.47
2022-09-05T00:14:36.772Z,25.47
2022-09-05T00:16:50.554Z,25.47
2022-09-05T00:24:17.586Z,25.46
2022-09-05T00:24:30.626Z,25.46
2022-09-05T00:24:32.632Z,25.48
2022-09-05T00:26:36.123Z,25.47
2022-09-05T00:29:02.512Z,25.47
2022-09-05T00:31:55.346Z,25.46
2022-09-05T00:33:55.277Z,25.46
2022-09-05T00:36:21.657Z,25.45
2022-09-05T00:38:48.037Z,25.46
2022-09-05T00:41:16.880Z,25.47
2022-09-05T00:43:43.265Z,25.45
2022-09-05T00:46:09.705Z,25.46
2022-09-05T00:48:36.063Z,25.46
2022-09-05T00:51:02.465Z,25.47
2022-09-05T00:53:28.837Z,25.45
2022-09-05T00:55:58.782Z,25.45
2022-09-05T00:58:21.626Z,25.46
2022-09-05T01:00:48.015Z,25.45
2022-09-05T01:03:14.457Z,25.45
2022-09-05T01:05:40.799Z,25.45
2022-09-05T01:08:07.184Z,25.45
2022-09-05T01:10:33.563Z,25.45
2022-09-05T01:12:59.941Z,25.44
2022-09-05T01:15:27.089Z,25.43
2022-09-05T01:17:52.796Z,25.44
2022-09-05T01:20:20.520Z,25.44
2022-09-05T01:22:46.690Z,25.44
2022-09-05T01:25:13.072Z,25.43
2022-09-05T01:28:22.366Z,25.43
2022-09-05T01:30:05.843Z,25.43
2022-09-05T01:32:32.216Z,25.40
2022-09-05T01:34:58.598Z,25.42
2022-09-05T01:37:33.479Z,25.40
2022-09-05T01:40:11.276Z,25.42
2022-09-05T01:42:17.756Z,25.40
2022-09-05T01:44:44.138Z,25.42
2022-09-05T01:47:12.497Z,25.42
2022-09-05T01:49:36.927Z,25.40
2022-09-05T01:52:03.314Z,25.39
2022-09-05T01:54:29.695Z,25.40
2022-09-05T01:56:56.073Z,25.42
2022-09-05T01:59:22.455Z,25.40
2022-09-05T02:01:48.874Z,25.40
2022-09-05T02:04:17.410Z,25.40
2022-09-05T02:06:44.181Z,25.42
2022-09-05T02:09:10.173Z,25.43
2022-09-05T02:11:36.556Z,25.42
2022-09-05T02:14:02.941Z,25.40
2022-09-05T02:16:29.312Z,25.39
2022-09-05T02:18:55.743Z,25.39
2022-09-05T02:21:22.116Z,25.38
2022-09-05T02:23:49.060Z,25.38
2022-09-05T02:26:14.908Z,25.38
2022-09-05T02:28:41.286Z,25.37
2022-09-05T02:31:19.595Z,25.38
2022-09-05T02:33:34.055Z,25.38
2022-09-05T02:36:00.433Z,25.38
2022-09-05T02:39:54.897Z,25.38
2022-09-05T02:45:01.138Z,25.39
2022-09-05T02:45:13.704Z,25.38
2022-09-05T02:45:46.125Z,25.38
2022-09-05T02:48:14.885Z,25.37
2022-09-05T02:54:35.668Z,25.37
2022-09-05T02:57:28.594Z,25.36
2022-09-05T02:57:37.968Z,25.36
2022-09-05T02:58:06.356Z,25.36
2022-09-05T03:00:24.332Z,25.35
2022-09-05T03:02:50.727Z,25.34
2022-09-05T03:05:17.129Z,25.33
2022-09-05T03:07:43.513Z,25.31
2022-09-05T03:10:09.914Z,25.32
2022-09-05T03:12:36.306Z,25.31
2022-09-05T03:15:02.678Z,25.30
2022-09-05T03:17:29.064Z,25.28
2022-09-05T03:19:55.444Z,25.27
2022-09-05T03:22:22.589Z,25.29
2022-09-05T03:24:55.670Z,25.27
2022-09-05T03:27:14.597Z,25.25
2022-09-05T03:29:40.979Z,25.24
2022-09-05T03:32:07.365Z,25.24
2022-09-05T03:34:33.740Z,25.22
2022-09-05T03:37:00.129Z,25.18
2022-09-05T03:39:26.569Z,25.21
2022-09-05T03:41:52.890Z,25.21
2022-09-05T03:44:19.278Z,25.22
2022-09-05T03:46:45.666Z,25.23
2022-09-05T03:50:09.496Z,25.24
2022-09-05T03:57:05.074Z,25.21
2022-09-05T03:57:12.479Z,25.22
2022-09-05T03:57:22.452Z,25.25
2022-09-05T03:58:57.810Z,25.25
2022-09-05T04:05:05.983Z,25.18
2022-09-05T04:08:13.521Z,25.14
2022-09-05T04:08:18.375Z,25.14
2022-09-05T04:08:43.719Z,25.12
2022-09-05T04:11:09.647Z,25.10
2022-09-05T04:13:35.966Z,25.07
2022-09-05T04:16:02.354Z,25.09
2022-09-05T04:18:33.107Z,25.06
2022-09-05T04:20:55.117Z,25.08
2022-09-05T04:23:21.493Z,25.06
2022-09-05T04:25:47.882Z,25.08
2022-09-05T04:28:14.256Z,25.08
2022-09-05T04:30:40.727Z,25.08
2022-09-05T04:33:07.025Z,25.09
2022-09-05T04:35:33.411Z,25.06
2022-09-05T04:37:59.789Z,25.07
2022-09-05T04:40:29.739Z,25.08
2022-09-05T04:42:52.613Z,25.14
2022-09-05T04:45:24.091Z,25.14
2022-09-05T04:47:45.399Z,25.12
2022-09-05T04:50:11.777Z,25.13
2022-09-05T04:52:38.161Z,25.13
2022-09-05T04:55:04.551Z,25.16
2022-09-05T04:57:30.939Z,25.15
2022-09-05T05:05:58.342Z,25.14
2022-09-05T05:06:17.109Z,25.16
2022-09-05T05:06:18.517Z,25.14
2022-09-05T05:07:16.625Z,25.17
2022-09-05T05:09:42.895Z,25.17
2022-09-05T05:17:20.933Z,25.16
2022-09-05T05:17:58.336Z,25.18
2022-09-05T05:18:09.601Z,25.18
2022-09-05T05:19:28.591Z,25.19
2022-09-05T05:21:54.920Z,25.17
2022-09-05T05:24:22.058Z,25.17
2022-09-05T05:26:47.695Z,25.16
2022-09-05T05:29:18.811Z,25.17
2022-09-05T05:31:40.494Z,25.18
2022-09-05T05:34:23.679Z,25.18
2022-09-05T05:36:33.256Z,25.17
2022-09-05T05:38:59.782Z,25.18
2022-09-05T05:41:26.163Z,25.18
2022-09-05T05:43:52.550Z,25.17
2022-09-05T05:46:19.002Z,25.17
2022-09-05T05:48:47.052Z,25.23
2022-09-05T05:51:11.718Z,25.28
2022-09-05T05:53:43.666Z,25.35
2022-09-05T05:56:04.484Z,25.37
2022-09-05T05:58:32.877Z,25.32
2022-09-05T06:00:57.274Z,25.30
2022-09-05T06:03:26.604Z,25.34
2022-09-05T06:05:50.045Z,25.36
2022-09-05T06:10:44.385Z,25.36
2022-09-05T06:14:57.130Z,25.35
2022-09-05T06:14:57.252Z,25.37
2022-09-05T06:15:36.219Z,25.38
2022-09-05T06:18:02.004Z,25.46
2022-09-05T06:22:07.380Z,25.40
2022-09-05T06:22:54.820Z,25.39
2022-09-05T06:25:21.205Z,25.40
2022-09-05T06:28:05.587Z,25.40
2022-09-05T06:30:13.988Z,25.39
2022-09-05T06:32:41.806Z,25.45
2022-09-05T06:35:06.917Z,25.37
2022-09-05T06:37:33.311Z,25.39
2022-09-05T06:39:59.756Z,25.34
2022-09-05T06:42:42.543Z,25.36
2022-09-05T06:44:52.541Z,25.36
2022-09-05T06:47:24.389Z,25.37
2022-09-05T06:49:46.182Z,25.34
2022-09-05T06:52:27.816Z,25.32
2022-09-05T06:54:38.426Z,25.31
2022-09-05T06:57:06.609Z,25.30
2022-09-05T06:59:33.006Z,25.30
2022-09-05T07:02:00.405Z,25.30
2022-09-05T07:05:23.798Z,25.29
2022-09-05T07:07:02.186Z,25.25
2022-09-05T07:09:18.612Z,25.27
2022-09-05T07:11:44.994Z,25.25
2022-09-05T07:14:11.453Z,25.28
2022-09-05T07:16:38.888Z,25.27
2022-09-05T07:19:04.197Z,25.29
2022-09-05T07:21:30.602Z,25.29
2022-09-05T07:24:09.937Z,25.31
2022-09-05T07:26:51.551Z,25.31
2022-09-05T07:28:52.971Z,25.31
2022-09-05T07:31:27.423Z,25.31
2022-09-05T07:33:45.795Z,25.30
2022-09-05T07:36:14.971Z,25.31
2022-09-05T07:38:52.414Z,25.29
2022-09-05T07:41:07.765Z,25.32
2022-09-05T07:43:34.161Z,25.30
2022-09-05T07:46:00.586Z,25.37
2022-09-05T07:48:34.614Z,25.32
2022-09-05T07:56:46.797Z,25.32
2022-09-05T07:56:59.519Z,25.36
2022-09-05T07:57:08.355Z,25.39
2022-09-05T07:58:12.549Z,25.36
2022-09-05T08:00:41.430Z,25.38
2022-09-05T08:03:07.787Z,25.38
2022-09-05T08:05:34.969Z,25.36
2022-09-05T08:08:00.579Z,25.39
2022-09-05T08:10:31.076Z,25.40
2022-09-05T08:13:23.745Z,25.40
2022-09-05T08:15:19.781Z,25.43
2022-09-05T08:17:46.145Z,25.43
2022-09-05T08:20:12.545Z,25.38
2022-09-05T08:22:38.953Z,25.36
2022-09-05T08:25:05.378Z,25.37
2022-09-05T08:27:31.721Z,25.38
2022-09-05T08:30:24.790Z,25.35
2022-09-05T08:32:24.504Z,25.35
2022-09-05T08:34:50.891Z,25.29
2022-09-05T08:37:21.176Z,25.28
2022-09-05T08:39:43.735Z,25.29
2022-09-05T08:42:10.070Z,25.25
2022-09-05T08:46:43.695Z,25.22
2022-09-05T08:47:02.946Z,25.17
2022-09-05T08:49:37.162Z,25.17
2022-09-05T08:51:55.818Z,25.20
2022-09-05T08:54:22.021Z,25.16
2022-09-05T08:56:48.408Z,25.20
2022-09-05T08:59:31.582Z,25.19
2022-09-05T09:01:46.543Z,25.19
2022-09-05T09:04:07.595Z,25.20
2022-09-05T09:06:34.048Z,25.22
2022-09-05T09:09:05.395Z,25.21
2022-09-05T09:11:26.813Z,25.37
2022-09-05T09:13:53.190Z,25.25
2022-09-05T09:16:19.611Z,25.17
2022-09-05T09:18:45.969Z,25.19
2022-09-05T09:21:12.354Z,25.23
2022-09-05T09:23:38.763Z,25.30
2022-09-05T09:26:05.164Z,25.34
2022-09-05T09:28:48.102Z,25.34
2022-09-05T09:30:58.021Z,25.34
2022-09-05T09:33:27.080Z,25.37
2022-09-05T09:35:51.797Z,25.40
2022-09-05T09:38:18.175Z,25.40
2022-09-05T09:41:00.915Z,25.51
2022-09-05T09:43:10.937Z,25.37
2022-09-05T09:45:37.317Z,25.40
2022-09-05T09:48:03.715Z,25.43
2022-09-05T09:50:30.130Z,25.38
2022-09-05T09:52:56.507Z,25.43
2022-09-05T09:55:22.937Z,25.42
2022-09-05T09:57:49.437Z,25.43
2022-09-05T10:00:15.797Z,25.44
2022-09-05T10:04:31.359Z,25.43
2022-09-05T10:10:33.201Z,25.49
2022-09-05T10:10:43.464Z,25.50
2022-09-05T10:10:55.201Z,25.50
2022-09-05T10:14:54.173Z,25.61
2022-09-05T10:17:20.560Z,25.48
2022-09-05T10:24:39.838Z,25.51
2022-09-05T10:27:06.201Z,25.53
2022-09-05T10:29:37.499Z,25.53
2022-09-05T10:34:35.713Z,25.57
2022-09-05T10:35:15.252Z,25.58
2022-09-05T10:36:52.328Z,25.60
2022-09-05T10:39:18.496Z,25.61
2022-09-05T10:41:44.868Z,25.62
2022-09-05T10:44:11.255Z,25.59
2022-09-05T10:46:50.761Z,25.56
2022-09-05T10:49:04.055Z,25.53
2022-09-05T10:51:30.441Z,25.45
2022-09-05T10:53:56.820Z,25.36
2022-09-05T10:56:23.213Z,25.38
2022-09-05T11:02:19.454Z,25.32
2022-09-05T11:02:21.203Z,25.32
2022-09-05T11:03:42.433Z,25.32
2022-09-05T11:06:09.344Z,25.31
2022-09-05T11:08:35.175Z,25.28
2022-09-05T11:11:02.505Z,25.31
2022-09-05T11:13:27.970Z,25.28
2022-09-05T11:16:03.584Z,25.22
2022-09-05T11:18:20.766Z,25.24
2022-09-05T11:20:47.140Z,25.23
2022-09-05T11:23:13.530Z,25.24
2022-09-05T11:25:41.198Z,25.22
2022-09-05T11:28:06.346Z,25.20
2022-09-05T11:30:38.132Z,25.25
2022-09-05T11:39:46.547Z,25.31
2022-09-05T11:39:48.695Z,25.32
2022-09-05T11:40:06.904Z,25.35
2022-09-05T11:40:31.533Z,25.38
2022-09-05T11:42:47.471Z,25.40
2022-09-05T11:45:13.264Z,25.40
2022-09-05T11:47:44.343Z,25.46
2022-09-05T11:50:09.311Z,25.44
2022-09-05T11:52:32.416Z,25.45
2022-09-05T11:54:58.824Z,25.42
2022-09-05T11:57:32.273Z,25.36
2022-09-05T12:00:31.439Z,25.35
2022-09-05T12:02:23.275Z,25.34
2022-09-05T12:04:44.545Z,25.29
2022-09-05T12:07:26.355Z,25.33
2022-09-05T12:09:37.317Z,25.35
2022-09-05T12:12:03.696Z,25.36
2022-09-05T12:14:30.082Z,25.36
2022-09-05T12:16:56.485Z,25.36
2022-09-05T12:19:23.162Z,25.36
2022-09-05T12:21:49.304Z,25.35
2022-09-05T12:25:15.873Z,25.35
2022-09-05T12:29:28.834Z,25.38
2022-09-05T12:33:39.395Z,25.32
2022-09-05T12:36:08.151Z,25.40
2022-09-05T12:40:54.064Z,25.38
2022-09-05T12:40:56.978Z,25.38
2022-09-05T12:41:41.713Z,25.37
2022-09-05T12:41:46.107Z,25.34
2022-09-05T12:44:38.486Z,25.32
2022-09-05T12:46:24.002Z,25.34
2022-09-05T12:48:39.922Z,25.33
2022-09-05T12:51:06.199Z,25.32
2022-09-05T12:53:32.587Z,25.33
2022-09-05T12:57:05.136Z,25.39
2022-09-05T13:03:01.266Z,25.45
2022-09-05T13:03:04.084Z,25.89
2022-09-05T13:03:27.108Z,26.83
2022-09-05T13:05:44.648Z,27.25
2022-09-05T13:08:10.948Z,25.57
2022-09-05T13:14:48.005Z,25.29
2022-09-05T13:14:58.635Z,25.22
2022-09-05T13:15:32.189Z,25.17
2022-09-05T13:17:56.594Z,25.15
2022-09-05T13:20:22.984Z,25.09
2022-09-05T13:22:49.365Z,25.13
2022-09-05T13:25:15.747Z,25.13
2022-09-05T13:27:42.160Z,26.63
2022-09-05T13:31:34.844Z,26.87
2022-09-05T13:38:11.969Z,27.25
2022-09-05T13:38:13.698Z,27.12
2022-09-05T13:38:15.757Z,27.24
2022-09-05T13:39:54.209Z,25.69
2022-09-05T13:42:20.492Z,25.48
2022-09-05T13:44:46.910Z,25.40
2022-09-05T13:47:29.397Z,26.07
2022-09-05T13:49:39.691Z,25.34
2022-09-05T13:52:06.083Z,25.21
2022-09-05T13:54:32.470Z,25.13
2022-09-05T13:56:58.899Z,25.12
2022-09-05T13:59:25.295Z,25.07
2022-09-05T14:02:29.104Z,25.07
2022-09-05T14:05:05.510Z,25.43
2022-09-05T14:06:47.238Z,25.90
2022-09-05T14:11:41.134Z,25.71
2022-09-05T14:14:03.699Z,25.71
2022-09-05T14:16:30.125Z,25.74
2022-09-05T14:18:56.475Z,25.72
2022-09-05T14:21:22.898Z,25.67
2022-09-05T14:23:49.282Z,25.64
2022-09-05T14:26:15.664Z,25.61
2022-09-05T14:28:42.051Z,25.64
2022-09-05T14:36:02.114Z,25.63
2022-09-05T14:37:42.478Z,25.47
2022-09-05T14:38:01.279Z,25.30
2022-09-05T14:38:28.162Z,25.22
2022-09-05T14:40:54.178Z,25.19
2022-09-05T14:43:27.037Z,25.13
2022-09-05T14:45:47.005Z,25.13
2022-09-05T14:48:13.439Z,25.12
2022-09-05T14:50:39.733Z,25.06
2022-09-05T14:55:33.914Z,25.09
2022-09-05T15:02:41.134Z,25.06
2022-09-05T15:02:44.408Z,25.08
2022-09-05T15:03:06.684Z,25.08
2022-09-05T15:05:18.169Z,25.05
2022-09-05T15:07:44.546Z,25.08
2022-09-05T15:12:14.752Z,25.05
2022-09-05T15:12:47.612Z,25.06
2022-09-05T15:15:04.903Z,25.09
2022-09-05T15:17:30.088Z,25.06
2022-09-05T15:20:06.355Z,25.12
2022-09-05T15:22:24.555Z,25.15
2022-09-05T15:24:49.251Z,25.09
2022-09-05T15:27:15.632Z,25.07
2022-09-05T15:29:42.014Z,25.06
2022-09-05T15:32:09.760Z,25.00
2022-09-05T15:34:34.770Z,24.98
2022-09-05T15:37:09.165Z,24.97
2022-09-05T15:39:27.572Z,24.94
2022-09-05T15:41:53.930Z,25.00
2022-09-05T15:44:20.304Z,24.98
2022-09-05T15:46:46.683Z,24.99
2022-09-05T15:49:13.085Z,25.01
2022-09-05T15:51:39.580Z,25.05
2022-09-05T15:54:05.965Z,25.06
2022-09-05T15:56:32.354Z,25.01
2022-09-05T15:58:58.730Z,25.05
2022-09-05T16:01:46.424Z,25.03
2022-09-05T16:08:55.517Z,25.03
2022-09-05T16:10:27.487Z,25.03
2022-09-05T16:10:58.127Z,25.03
2022-09-05T16:11:31.649Z,25.04
2022-09-05T16:13:53.036Z,25.01
2022-09-05T16:21:34.325Z,25.02
2022-09-05T16:23:30.450Z,25.04
2022-09-05T16:23:37.039Z,25.04
2022-09-05T16:23:40.612Z,25.06
2022-09-05T16:25:49.239Z,25.06
2022-09-05T16:28:15.636Z,25.07
2022-09-05T16:30:42.008Z,25.07
2022-09-05T16:33:08.564Z,25.08
2022-09-05T16:35:34.954Z,25.09
2022-09-05T16:38:01.328Z,25.03
2022-09-05T16:40:27.712Z,25.08
2022-09-05T16:42:54.120Z,25.10
2022-09-05T16:45:20.498Z,25.13
2022-09-05T16:47:46.877Z,25.13
2022-09-05T16:50:16.924Z,25.14
2022-09-05T16:52:39.632Z,25.14
2022-09-05T16:55:06.024Z,25.13
2022-09-05T16:57:32.404Z,25.12
2022-09-05T16:59:58.891Z,25.10
2022-09-05T17:02:25.311Z,25.08
2022-09-05T17:05:03.195Z,25.07
2022-09-05T17:07:18.030Z,25.06
2022-09-05T17:09:44.420Z,25.04
2022-09-05T17:12:10.794Z,25.03
2022-09-05T17:14:37.184Z,25.02
2022-09-05T17:17:36.161Z,25.00
2022-09-05T17:19:30.892Z,24.99
2022-09-05T17:21:56.361Z,24.98
2022-09-05T17:29:15.418Z,24.95
2022-09-05T17:29:37.962Z,24.95
2022-09-05T17:30:32.215Z,24.91
2022-09-05T17:31:54.255Z,24.91
2022-09-05T17:34:08.343Z,24.91
2022-09-05T17:36:40.933Z,24.92
2022-09-05T17:39:01.135Z,24.89
2022-09-05T17:41:27.512Z,24.89
2022-09-05T17:43:53.897Z,24.90
2022-09-05T17:46:20.281Z,24.93
2022-09-05T17:48:49.236Z,24.89
2022-09-05T17:51:13.044Z,24.93
2022-09-05T17:53:39.426Z,24.94
2022-09-05T17:56:05.813Z,24.95
2022-09-05T17:58:49.345Z,24.95
2022-09-05T18:00:58.622Z,24.95
2022-09-05T18:03:24.951Z,24.97
2022-09-05T18:05:51.329Z,24.97
2022-09-05T18:08:17.715Z,25.00
2022-09-05T18:10:44.091Z,25.01
2022-09-05T18:13:31.306Z,25.02
2022-09-05T18:15:36.913Z,25.04
2022-09-05T18:18:03.318Z,25.03
2022-09-05T18:20:29.693Z,25.05
2022-09-05T18:23:26.357Z,25.06
2022-09-05T18:25:28.479Z,25.06
2022-09-05T18:28:04.612Z,25.06
2022-09-05T18:30:15.251Z,25.07
2022-09-05T18:32:41.658Z,25.09
2022-09-05T18:35:08.631Z,25.09
2022-09-05T18:37:34.532Z,25.12
2022-09-05T18:40:00.945Z,25.10
2022-09-05T18:42:34.812Z,25.13
2022-09-05T18:44:56.310Z,25.10
2022-09-05T18:47:33.595Z,25.13
2022-09-05T18:50:21.544Z,25.13
2022-09-05T18:52:12.880Z,25.13
2022-09-05T18:54:39.265Z,25.15
2022-09-05T18:57:27.354Z,25.15
2022-09-05T18:59:34.606Z,25.14
2022-09-05T19:01:58.410Z,25.15
2022-09-05T19:04:40.591Z,25.16
2022-09-05T19:06:51.173Z,25.15
2022-09-05T19:09:17.552Z,25.17
2022-09-05T19:11:53.695Z,25.17
2022-09-05T19:14:26.351Z,25.15
2022-09-05T19:16:43.777Z,25.16
2022-09-05T19:19:03.182Z,25.17
2022-09-05T19:21:33.457Z,25.16
2022-09-05T19:23:55.947Z,25.16
2022-09-05T19:26:22.334Z,25.15
2022-09-05T19:36:44.469Z,25.15
2022-09-05T19:36:55.709Z,25.16
2022-09-05T19:37:06.267Z,25.16
2022-09-05T19:37:12.523Z,25.17
2022-09-05T19:38:58.022Z,25.16
2022-09-05T19:47:10.937Z,25.15
2022-09-05T19:47:34.344Z,25.15
2022-09-05T19:47:39.302Z,25.17
2022-09-05T19:48:20.191Z,25.17
2022-09-05T19:50:46.539Z,25.15
2022-09-05T19:53:12.900Z,25.16
2022-09-05T19:55:39.316Z,25.16
2022-09-05T19:58:18.802Z,25.17
2022-09-05T20:00:32.119Z,25.16
2022-09-05T20:02:58.447Z,25.17
2022-09-05T20:05:24.839Z,25.17
2022-09-05T20:07:51.283Z,25.17
2022-09-05T20:10:17.597Z,25.16
2022-09-05T20:12:43.980Z,25.16
2022-09-05T20:15:10.362Z,25.15
2022-09-05T20:17:36.743Z,25.15
2022-09-05T20:20:03.172Z,25.14
2022-09-05T20:22:48.159Z,25.15
2022-09-05T20:24:55.941Z,25.13
2022-09-05T20:27:27.244Z,25.14
2022-09-05T20:29:55.098Z,25.14
2022-09-05T20:32:15.177Z,25.13
2022-09-05T20:36:27.956Z,25.13
2022-09-05T20:42:35.566Z,25.12
2022-09-05T20:43:16.207Z,25.12
2022-09-05T20:43:32.088Z,25.12
2022-09-05T20:44:27.110Z,25.13
2022-09-05T20:50:38.703Z,25.12
2022-09-05T20:54:19.064Z,25.13
2022-09-05T20:54:22.768Z,25.12
2022-09-05T20:54:31.883Z,25.12
2022-09-05T20:56:39.055Z,25.12
2022-09-05T20:59:05.438Z,25.12
2022-09-05T21:01:31.915Z,25.12
2022-09-05T21:03:58.200Z,25.10
2022-09-05T21:06:24.591Z,25.10
2022-09-05T21:08:50.966Z,25.12
2022-09-05T21:11:17.355Z,25.13
2022-09-05T21:13:52.405Z,25.10
2022-09-05T21:16:10.161Z,25.10
2022-09-05T21:18:36.505Z,25.09
2022-09-05T21:21:14.630Z,25.08
2022-09-05T21:23:29.337Z,25.09
2022-09-05T21:25:55.830Z,25.09
2022-09-05T21:28:22.217Z,25.09
2022-09-05T21:30:48.652Z,25.09
2022-09-05T21:33:25.937Z,25.07
2022-09-05T21:35:41.363Z,25.08
2022-09-05T21:38:07.769Z,25.10
2022-09-05T21:40:34.149Z,25.08
2022-09-05T21:46:00.569Z,25.09
2022-09-05T21:47:43.335Z,25.08
2022-09-05T21:47:53.936Z,25.08
2022-09-05T21:50:30.851Z,25.07
2022-09-05T21:53:31.178Z,25.08
2022-09-05T21:59:25.801Z,25.08
2022-09-05T21:59:26.993Z,25.06
2022-09-05T22:00:10.725Z,25.06
2022-09-05T22:02:31.697Z,25.07
2022-09-05T22:05:02.245Z,25.07
2022-09-05T22:07:32.575Z,25.07
2022-09-05T22:09:50.792Z,25.07
2022-09-05T22:12:30.010Z,25.07
2022-09-05T22:14:43.687Z,25.05
2022-09-05T22:17:10.076Z,25.05
2022-09-05T22:19:37.147Z,25.07
2022-09-05T22:22:02.858Z,25.07
2022-09-05T22:24:29.277Z,25.06
2022-09-05T22:27:12.570Z,25.05
2022-09-05T22:29:22.131Z,25.06
2022-09-05T22:31:48.575Z,25.05
2022-09-05T22:34:14.970Z,25.05
2022-09-05T22:36:41.338Z,25.05
2022-09-05T22:39:07.731Z,25.05
2022-09-05T22:41:34.112Z,25.06
2022-09-05T22:44:00.507Z,25.03
2022-09-05T22:46:26.897Z,25.04
2022-09-05T22:48:53.348Z,25.04
2022-09-05T22:51:19.725Z,25.04
2022-09-05T22:53:46.111Z,25.05
2022-09-05T22:56:12.549Z,25.03
2022-09-05T22:58:38.931Z,25.04
2022-09-05T23:01:05.320Z,25.03
2022-09-05T23:03:31.698Z,25.03
2022-09-05T23:05:58.165Z,25.03
2022-09-05T23:08:24.652Z,25.03
2022-09-05T23:10:50.929Z,25.03
2022-09-05T23:13:18.490Z,25.03
2022-09-05T23:15:44.981Z,25.02
2022-09-05T23:18:11.279Z,25.01
2022-09-05T23:20:37.669Z,25.04
2022-09-05T23:23:04.040Z,25.02
2022-09-05T23:25:30.424Z,25.02
2022-09-05T23:27:56.890Z,25.03
2022-09-05T23:30:23.286Z,25.02
2022-09-05T23:32:49.667Z,25.01
2022-09-05T23:35:16.048Z,25.02
2022-09-05T23:37:42.440Z,25.01
2022-09-05T23:40:08.871Z,25.01
2022-09-05T23:42:35.207Z,25.01
2022-09-05T23:45:01.714Z,25.00
2022-09-05T23:47:29.674Z,25.02
2022-09-05T23:49:54.483Z,24.98
2022-09-05T23:52:20.863Z,24.99
2022-09-05T23:54:47.249Z,25.00
2022-09-05T23:57:13.675Z,24.99
2022-09-05T23:59:40.048Z,24.99
